PWSweather.com
Personal Weather Stations
Station Observations
KTXHOUST78
First Montrose Commons, Houston, TX 77006

First Montrose CommonsHouston, TX 77006

Lat: 29.7359886, Lon: -95.3870926

Elevation: 50

Station Type: Texas Weather Instruments WR-25

Latest ConditionsUpdated 11:00:04 PM CDT Tuesday, Aug 20, 2019
Currently Today's Max Today's Min Today's Average
Temperature 82.0°F27.8°C 91.0°F32.8°C 77.0°F25.0°C 83.5°F28.6°C
Dew Point 76.3°F24.6°C 81.1°F27.3°C 72.9°F22.7°C 77.2°F25.1°C
Winds 2.0 mph SSW3.2 kmh SSW 12.0 mph -19.3 kmh - - 2.5 mph 4.0 kmh
Wind Gusts 2.0 mph3.2 kmh 17.0 mph27.4 kmh - -
Humidity 83% 99% 62% 82%
Pressure 30.02 in1016.6 mb 30.08 in1018.6 mb 29.97 in1014.9 mb -
Hour Temp Dew Point Humidity Winds Wind Gusts Pressure Precip Precip Rate Daily Precip Total
11:00 PM 82.0°F27.8°C 76.3°F24.6°C 83% 2.0 mph SSW3.2 kmh SSW 2.0 mph3.2 kmh 30.02 in1016.6 mb 0.00 in0.0 mm 0.00 in0.0 mm 0.97 in24.6 mm
10:50 PM 83.0°F28.3°C 77.3°F25.2°C 83% 2.0 mph SE3.2 kmh SE 3.0 mph4.8 kmh 30.02 in1016.6 mb 0.00 in0.0 mm 0.00 in0.0 mm 0.97 in24.6 mm
10:40 PM 83.0°F28.3°C 77.3°F25.2°C 83% 2.0 mph S3.2 kmh S 2.0 mph3.2 kmh 30.01 in1016.3 mb 0.00 in0.0 mm 0.00 in0.0 mm 0.97 in24.6 mm
10:30 PM 83.0°F28.3°C 76.9°F24.9°C 82% 3.0 mph SE4.8 kmh SE 3.0 mph4.8 kmh 30.01 in1016.3 mb 0.00 in0.0 mm 0.00 in0.0 mm 0.97 in24.6 mm
10:20 PM 83.0°F28.3°C 76.6°F24.8°C 81% 2.0 mph SSE3.2 kmh SSE 3.0 mph4.8 kmh 30.01 in1016.3 mb 0.00 in0.0 mm 0.00 in0.0 mm 0.97 in24.6 mm
10:10 PM 83.0°F28.3°C 76.6°F24.8°C 81% 2.0 mph S3.2 kmh S 3.0 mph4.8 kmh 30.01 in1016.3 mb 0.00 in0.0 mm 0.00 in0.0 mm 0.97 in24.6 mm
10:00 PM 83.0°F28.3°C 76.2°F24.6°C 80% 5.0 mph SW8.0 kmh SW 5.0 mph8.0 kmh 30.00 in1015.9 mb 0.00 in0.0 mm 0.00 in0.0 mm 0.97 in24.6 mm
09:50 PM 83.0°F28.3°C 75.8°F24.3°C 79% 1.0 mph SW1.6 kmh SW 2.0 mph3.2 kmh 29.99 in1015.6 mb 0.00 in0.0 mm 0.00 in0.0 mm 0.97 in24.6 mm
09:40 PM 84.0°F28.9°C 76.8°F24.9°C 79% 1.0 mph S1.6 kmh S 2.0 mph3.2 kmh 30.00 in1015.9 mb 0.00 in0.0 mm 0.00 in0.0 mm 0.97 in24.6 mm
09:30 PM 84.0°F28.9°C 76.4°F24.7°C 78% 3.0 mph SSW4.8 kmh SSW 3.0 mph4.8 kmh 29.99 in1015.6 mb 0.00 in0.0 mm 0.00 in0.0 mm 0.97 in24.6 mm
09:20 PM 84.0°F28.9°C 76.0°F24.4°C 77% 1.0 mph S1.6 kmh S 1.0 mph1.6 kmh 29.99 in1015.6 mb 0.00 in0.0 mm 0.00 in0.0 mm 0.97 in24.6 mm
09:10 PM 84.0°F28.9°C 76.0°F24.4°C 77% 2.0 mph S3.2 kmh S 2.0 mph3.2 kmh 29.99 in1015.6 mb 0.00 in0.0 mm 0.00 in0.0 mm 0.97 in24.6 mm
09:00 PM 84.0°F28.9°C 76.0°F24.4°C 77% 3.0 mph SW4.8 kmh SW 4.0 mph6.4 kmh 29.98 in1015.2 mb 0.00 in0.0 mm 0.00 in0.0 mm 0.97 in24.6 mm
08:50 PM 85.0°F29.4°C 76.6°F24.8°C 76% 5.0 mph SSW8.0 kmh SSW 5.0 mph8.0 kmh 29.98 in1015.2 mb 0.00 in0.0 mm 0.00 in0.0 mm 0.97 in24.6 mm
08:40 PM 85.0°F29.4°C 75.8°F24.3°C 74% 2.0 mph W3.2 kmh W 3.0 mph4.8 kmh 29.98 in1015.2 mb 0.00 in0.0 mm 0.00 in0.0 mm 0.97 in24.6 mm
08:30 PM 85.0°F29.4°C 75.4°F24.1°C 73% 4.0 mph SSW6.4 kmh SSW 4.0 mph6.4 kmh 29.98 in1015.2 mb 0.00 in0.0 mm 0.00 in0.0 mm 0.97 in24.6 mm
08:20 PM 85.0°F29.4°C 75.8°F24.3°C 74% 5.0 mph SE8.0 kmh SE 7.0 mph11.3 kmh 29.98 in1015.2 mb 0.00 in0.0 mm 0.00 in0.0 mm 0.97 in24.6 mm
08:10 PM 86.0°F30.0°C 76.3°F24.6°C 73% 2.0 mph SW3.2 kmh SW 3.0 mph4.8 kmh 29.98 in1015.2 mb 0.00 in0.0 mm 0.00 in0.0 mm 0.97 in24.6 mm
08:00 PM 86.0°F30.0°C 75.9°F24.4°C 72% 3.0 mph S4.8 kmh S 3.0 mph4.8 kmh 29.99 in1015.6 mb 0.00 in0.0 mm 0.00 in0.0 mm 0.97 in24.6 mm
07:50 PM 86.0°F30.0°C 75.1°F23.9°C 70% 4.0 mph WSW6.4 kmh WSW 5.0 mph8.0 kmh 29.99 in1015.6 mb 0.00 in0.0 mm 0.00 in0.0 mm 0.97 in24.6 mm
07:40 PM 86.0°F30.0°C 74.7°F23.7°C 69% 3.0 mph SSW4.8 kmh SSW 4.0 mph6.4 kmh 29.99 in1015.6 mb 0.00 in0.0 mm 0.00 in0.0 mm 0.97 in24.6 mm
07:30 PM 86.0°F30.0°C 74.7°F23.7°C 69% 2.0 mph S3.2 kmh S 2.0 mph3.2 kmh 29.99 in1015.6 mb 0.00 in0.0 mm 0.00 in0.0 mm 0.97 in24.6 mm
07:20 PM 87.0°F30.6°C 75.2°F24.0°C 68% 3.0 mph S4.8 kmh S 5.0 mph8.0 kmh 29.99 in1015.6 mb 0.00 in0.0 mm 0.00 in0.0 mm 0.97 in24.6 mm
07:10 PM 87.0°F30.6°C 75.6°F24.2°C 69% 5.0 mph SSW8.0 kmh SSW 6.0 mph9.7 kmh 29.99 in1015.6 mb 0.00 in0.0 mm 0.00 in0.0 mm 0.97 in24.6 mm
07:00 PM 87.0°F30.6°C 75.2°F24.0°C 68% 4.0 mph WSW6.4 kmh WSW 6.0 mph9.7 kmh 30.00 in1015.9 mb 0.00 in0.0 mm 0.00 in0.0 mm 0.97 in24.6 mm
06:50 PM 87.0°F30.6°C 74.7°F23.7°C 67% 3.0 mph S4.8 kmh S 4.0 mph6.4 kmh 30.00 in1015.9 mb 0.00 in0.0 mm 0.00 in0.0 mm 0.97 in24.6 mm
06:40 PM 87.0°F30.6°C 74.7°F23.7°C 67% 3.0 mph SSW4.8 kmh SSW 3.0 mph4.8 kmh 30.00 in1015.9 mb 0.00 in0.0 mm 0.00 in0.0 mm 0.97 in24.6 mm
06:30 PM 87.0°F30.6°C 74.7°F23.7°C 67% 1.0 mph S1.6 kmh S 2.0 mph3.2 kmh 30.00 in1015.9 mb 0.00 in0.0 mm 0.00 in0.0 mm 0.97 in24.6 mm
06:20 PM 88.0°F31.1°C 74.8°F23.8°C 65% 3.0 mph SE4.8 kmh SE 5.0 mph8.0 kmh 30.00 in1015.9 mb 0.00 in0.0 mm 0.00 in0.0 mm 0.97 in24.6 mm
06:10 PM 88.0°F31.1°C 74.8°F23.8°C 65% 3.0 mph SW4.8 kmh SW 4.0 mph6.4 kmh 30.01 in1016.3 mb 0.00 in0.0 mm 0.00 in0.0 mm 0.97 in24.6 mm
06:00 PM 88.0°F31.1°C 74.8°F23.8°C 65% 6.0 mph SSE9.7 kmh SSE 6.0 mph9.7 kmh 30.01 in1016.3 mb 0.00 in0.0 mm 0.00 in0.0 mm 0.97 in24.6 mm
05:50 PM 88.0°F31.1°C 74.3°F23.5°C 64% 6.0 mph SSE9.7 kmh SSE 6.0 mph9.7 kmh 30.01 in1016.3 mb 0.00 in0.0 mm 0.00 in0.0 mm 0.97 in24.6 mm
05:40 PM 88.0°F31.1°C 74.8°F23.8°C 65% 3.0 mph SSW4.8 kmh SSW 3.0 mph4.8 kmh 30.01 in1016.3 mb 0.00 in0.0 mm 0.00 in0.0 mm 0.97 in24.6 mm
05:30 PM 88.0°F31.1°C 73.4°F23.0°C 62% 3.0 mph S4.8 kmh S 3.0 mph4.8 kmh 30.01 in1016.3 mb 0.00 in0.0 mm 0.00 in0.0 mm 0.97 in24.6 mm
05:20 PM 87.0°F30.6°C 73.8°F23.2°C 65% 3.0 mph W4.8 kmh W 4.0 mph6.4 kmh 30.01 in1016.3 mb 0.00 in0.0 mm 0.00 in0.0 mm 0.97 in24.6 mm
05:10 PM 87.0°F30.6°C 74.3°F23.5°C 66% 3.0 mph SSW4.8 kmh SSW 3.0 mph4.8 kmh 30.00 in1015.9 mb 0.00 in0.0 mm 0.00 in0.0 mm 0.97 in24.6 mm
05:00 PM 87.0°F30.6°C 74.3°F23.5°C 66% 5.0 mph S8.0 kmh S 6.0 mph9.7 kmh 30.01 in1016.3 mb 0.00 in0.0 mm 0.00 in0.0 mm 0.97 in24.6 mm
04:50 PM 87.0°F30.6°C 74.3°F23.5°C 66% 5.0 mph SSW8.0 kmh SSW 6.0 mph9.7 kmh 30.02 in1016.6 mb 0.00 in0.0 mm 0.00 in0.0 mm 0.97 in24.6 mm
04:40 PM 86.0°F30.0°C 74.2°F23.4°C 68% 3.0 mph SW4.8 kmh SW 5.0 mph8.0 kmh 30.01 in1016.3 mb 0.00 in0.0 mm 0.00 in0.0 mm 0.97 in24.6 mm
04:30 PM 86.0°F30.0°C 72.9°F22.7°C 65% 3.0 mph S4.8 kmh S 5.0 mph8.0 kmh 30.01 in1016.3 mb 0.00 in0.0 mm 0.00 in0.0 mm 0.97 in24.6 mm
04:20 PM 86.0°F30.0°C 75.9°F24.4°C 72% 2.0 mph ESE3.2 kmh ESE 5.0 mph8.0 kmh 30.02 in1016.6 mb 0.00 in0.0 mm 0.00 in0.0 mm 0.97 in24.6 mm
04:10 PM 86.0°F30.0°C 76.3°F24.6°C 73% 4.0 mph SSW6.4 kmh SSW 5.0 mph8.0 kmh 30.02 in1016.6 mb 0.00 in0.0 mm 0.00 in0.0 mm 0.97 in24.6 mm
04:00 PM 85.0°F29.4°C 77.4°F25.2°C 78% 3.0 mph WSW4.8 kmh WSW 5.0 mph8.0 kmh 30.01 in1016.3 mb 0.00 in0.0 mm 0.00 in0.0 mm 0.97 in24.6 mm
03:50 PM 85.0°F29.4°C 76.6°F24.8°C 76% 3.0 mph SSW4.8 kmh SSW 5.0 mph8.0 kmh 30.01 in1016.3 mb 0.00 in0.0 mm 0.00 in0.0 mm 0.97 in24.6 mm
03:40 PM 84.0°F28.9°C 77.9°F25.5°C 82% 4.0 mph S6.4 kmh S 4.0 mph6.4 kmh 30.01 in1016.3 mb 0.00 in0.0 mm 0.00 in0.0 mm 0.97 in24.6 mm
03:30 PM 84.0°F28.9°C 77.5°F25.3°C 81% 2.0 mph SSE3.2 kmh SSE 3.0 mph4.8 kmh 30.02 in1016.6 mb 0.00 in0.0 mm 0.00 in0.0 mm 0.97 in24.6 mm
03:20 PM 83.0°F28.3°C 78.4°F25.8°C 86% 5.0 mph SSW8.0 kmh SSW 6.0 mph9.7 kmh 30.02 in1016.6 mb 0.00 in0.0 mm 0.00 in0.0 mm 0.97 in24.6 mm
03:10 PM 82.0°F27.8°C 77.4°F25.2°C 86% 3.0 mph SW4.8 kmh SW 4.0 mph6.4 kmh 30.03 in1016.9 mb 0.00 in0.0 mm 0.00 in0.0 mm 0.97 in24.6 mm
03:00 PM 82.0°F27.8°C 78.4°F25.8°C 89% 1.0 mph ENE1.6 kmh ENE 1.0 mph1.6 kmh 30.03 in1016.9 mb 0.00 in0.0 mm 0.00 in0.0 mm 0.97 in24.6 mm
02:50 PM 81.0°F27.2°C 78.1°F25.6°C 91% 1.0 mph SE1.6 kmh SE 2.0 mph3.2 kmh 30.04 in1017.3 mb 0.00 in0.0 mm 0.00 in0.0 mm 0.97 in24.6 mm
02:40 PM 80.0°F26.7°C 77.8°F25.4°C 93% 1.0 mph SSE1.6 kmh SSE 1.0 mph1.6 kmh 30.03 in1016.9 mb 0.00 in0.0 mm 0.00 in0.0 mm 0.97 in24.6 mm
02:30 PM 80.0°F26.7°C 78.4°F25.8°C 95% 3.0 mph SSW4.8 kmh SSW 3.0 mph4.8 kmh 30.03 in1016.9 mb 0.00 in0.0 mm 0.00 in0.0 mm 0.97 in24.6 mm
02:20 PM 79.0°F26.1°C 78.7°F25.9°C 99% 3.0 mph SW4.8 kmh SW 5.0 mph8.0 kmh 30.04 in1017.3 mb 0.05 in1.3 mm 0.00 in0.0 mm 0.97 in24.6 mm
02:10 PM 78.0°F25.6°C 77.4°F25.2°C 98% 2.0 mph WSW3.2 kmh WSW 3.0 mph4.8 kmh 30.04 in1017.3 mb 0.19 in4.8 mm 0.00 in0.0 mm 0.97 in24.6 mm
02:00 PM 78.0°F25.6°C 77.7°F25.4°C 99% 2.0 mph ESE3.2 kmh ESE 2.0 mph3.2 kmh 30.05 in1017.6 mb 0.80 in20.3 mm 0.00 in0.0 mm 0.97 in24.6 mm
01:50 PM 77.0°F25.0°C 76.4°F24.7°C 98% 3.0 mph SSW4.8 kmh SSW 3.0 mph4.8 kmh 30.05 in1017.6 mb 0.90 in22.9 mm 0.00 in0.0 mm 0.97 in24.6 mm
01:40 PM 77.0°F25.0°C 76.4°F24.7°C 98% 4.0 mph SSE6.4 kmh SSE 7.0 mph11.3 kmh 30.06 in1017.9 mb 0.97 in24.6 mm 0.00 in0.0 mm 0.97 in24.6 mm
01:30 PM 77.0°F25.0°C 76.1°F24.5°C 97% 6.0 mph SE9.7 kmh SE 11.0 mph17.7 kmh 30.07 in1018.3 mb 0.97 in24.6 mm 0.24 in6.1 mm 0.97 in24.6 mm
01:20 PM 78.0°F25.6°C 76.8°F24.9°C 96% 4.0 mph WSW6.4 kmh WSW 5.0 mph8.0 kmh 30.08 in1018.6 mb 0.93 in23.6 mm 0.60 in15.2 mm 0.93 in23.6 mm
01:10 PM 79.0°F26.1°C 76.5°F24.7°C 92% 12.0 mph SW19.3 kmh SW 13.0 mph20.9 kmh 30.07 in1018.3 mb 0.83 in21.1 mm 3.72 in94.5 mm 0.83 in21.1 mm
01:00 PM 82.0°F27.8°C 77.1°F25.1°C 85% 10.0 mph S16.1 kmh S 17.0 mph27.4 kmh 30.07 in1018.3 mb 0.21 in5.3 mm 0.13 in3.3 mm 0.21 in5.3 mm
12:50 PM 84.0°F28.9°C 77.2°F25.1°C 80% 3.0 mph S4.8 kmh S 3.0 mph4.8 kmh 30.05 in1017.6 mb 0.10 in2.5 mm 0.42 in10.7 mm 0.10 in2.5 mm
12:40 PM 85.0°F29.4°C 76.2°F24.6°C 75% 1.0 mph SSW1.6 kmh SSW 1.0 mph1.6 kmh 30.03 in1016.9 mb 0.03 in0.8 mm 0.00 in0.0 mm 0.03 in0.8 mm
12:30 PM 86.0°F30.0°C 75.5°F24.2°C 71% 1.0 mph NW1.6 kmh NW 1.0 mph1.6 kmh 30.03 in1016.9 mb 0.03 in0.8 mm 0.06 in1.5 mm 0.03 in0.8 mm
12:20 PM 88.0°F31.1°C 75.7°F24.3°C 67% 3.0 mph ENE4.8 kmh ENE 4.0 mph6.4 kmh 30.03 in1016.9 mb 0.02 in0.5 mm 0.12 in3.0 mm 0.02 in0.5 mm
12:10 PM 89.0°F31.7°C 75.3°F24.1°C 64% 1.0 mph ESE1.6 kmh ESE 1.0 mph1.6 kmh 30.03 in1016.9 mb 0.00 in0.0 mm 0.00 in0.0 mm 0.00 in0.0 mm
12:00 PM 90.0°F32.2°C 76.2°F24.6°C 64% 1.0 mph E1.6 kmh E 1.0 mph1.6 kmh 30.03 in1016.9 mb 0.00 in0.0 mm 0.00 in0.0 mm 0.00 in0.0 mm
11:50 AM 90.0°F32.2°C 76.2°F24.6°C 64% 6.0 mph S9.7 kmh S 6.0 mph9.7 kmh 30.03 in1016.9 mb 0.00 in0.0 mm 0.00 in0.0 mm 0.00 in0.0 mm
11:40 AM 91.0°F32.8°C 77.6°F25.3°C 65% 2.0 mph ESE3.2 kmh ESE 3.0 mph4.8 kmh 30.03 in1016.9 mb 0.00 in0.0 mm 0.00 in0.0 mm 0.00 in0.0 mm
11:30 AM 90.0°F32.2°C 76.7°F24.8°C 65% 2.0 mph ENE3.2 kmh ENE 3.0 mph4.8 kmh 30.04 in1017.3 mb 0.00 in0.0 mm 0.00 in0.0 mm 0.00 in0.0 mm
11:20 AM 90.0°F32.2°C 76.7°F24.8°C 65% 3.0 mph S4.8 kmh S 3.0 mph4.8 kmh 30.03 in1016.9 mb 0.00 in0.0 mm 0.00 in0.0 mm 0.00 in0.0 mm
11:10 AM 89.0°F31.7°C 76.6°F24.8°C 67% 3.0 mph SE4.8 kmh SE 3.0 mph4.8 kmh 30.03 in1016.9 mb 0.00 in0.0 mm 0.00 in0.0 mm 0.00 in0.0 mm
11:00 AM 89.0°F31.7°C 77.1°F25.1°C 68% 3.0 mph SSW4.8 kmh SSW 3.0 mph4.8 kmh 30.03 in1016.9 mb 0.00 in0.0 mm 0.00 in0.0 mm 0.00 in0.0 mm
10:50 AM 88.0°F31.1°C 77.0°F25.0°C 70% 5.0 mph SSW8.0 kmh SSW 5.0 mph8.0 kmh 30.03 in1016.9 mb 0.00 in0.0 mm 0.00 in0.0 mm 0.00 in0.0 mm
10:40 AM 88.0°F31.1°C 77.8°F25.4°C 72% 5.0 mph SSW8.0 kmh SSW 5.0 mph8.0 kmh 30.02 in1016.6 mb 0.00 in0.0 mm 0.00 in0.0 mm 0.00 in0.0 mm
10:30 AM 87.0°F30.6°C 79.3°F26.3°C 78% 1.0 mph NW1.6 kmh NW 1.0 mph1.6 kmh 30.03 in1016.9 mb 0.00 in0.0 mm 0.00 in0.0 mm 0.00 in0.0 mm
10:20 AM 87.0°F30.6°C 78.9°F26.1°C 77% 2.0 mph WSW3.2 kmh WSW 4.0 mph6.4 kmh 30.03 in1016.9 mb 0.00 in0.0 mm 0.00 in0.0 mm 0.00 in0.0 mm
10:10 AM 87.0°F30.6°C 78.9°F26.1°C 77% 3.0 mph SSW4.8 kmh SSW 3.0 mph4.8 kmh 30.03 in1016.9 mb 0.00 in0.0 mm 0.00 in0.0 mm 0.00 in0.0 mm
10:00 AM 86.0°F30.0°C 79.5°F26.4°C 81% 3.0 mph SW4.8 kmh SW 5.0 mph8.0 kmh 30.03 in1016.9 mb 0.00 in0.0 mm 0.00 in0.0 mm 0.00 in0.0 mm
09:50 AM 86.0°F30.0°C 80.6°F27.0°C 84% 1.0 mph S1.6 kmh S 1.0 mph1.6 kmh 30.03 in1016.9 mb 0.00 in0.0 mm 0.00 in0.0 mm 0.00 in0.0 mm
09:40 AM 85.0°F29.4°C 78.9°F26.1°C 82% 4.0 mph SSW6.4 kmh SSW 5.0 mph8.0 kmh 30.03 in1016.9 mb 0.00 in0.0 mm 0.00 in0.0 mm 0.00 in0.0 mm
09:30 AM 85.0°F29.4°C 80.4°F26.9°C 86% 3.0 mph WSW4.8 kmh WSW 5.0 mph8.0 kmh 30.02 in1016.6 mb 0.00 in0.0 mm 0.00 in0.0 mm 0.00 in0.0 mm
09:20 AM 85.0°F29.4°C 80.7°F27.1°C 87% 1.0 mph W1.6 kmh W 2.0 mph3.2 kmh 30.02 in1016.6 mb 0.00 in0.0 mm 0.00 in0.0 mm 0.00 in0.0 mm
09:10 AM 84.0°F28.9°C 80.1°F26.7°C 88% 3.0 mph SSW4.8 kmh SSW 4.0 mph6.4 kmh 30.02 in1016.6 mb 0.00 in0.0 mm 0.00 in0.0 mm 0.00 in0.0 mm
09:00 AM 84.0°F28.9°C 81.1°F27.3°C 91% 1.0 mph W1.6 kmh W 1.0 mph1.6 kmh 30.02 in1016.6 mb 0.00 in0.0 mm 0.00 in0.0 mm 0.00 in0.0 mm
08:50 AM 83.0°F28.3°C 80.1°F26.7°C 91% 3.0 mph WSW4.8 kmh WSW 3.0 mph4.8 kmh 30.01 in1016.3 mb 0.00 in0.0 mm 0.00 in0.0 mm 0.00 in0.0 mm
08:40 AM 83.0°F28.3°C 80.8°F27.1°C 93% 2.0 mph SSE3.2 kmh SSE 3.0 mph4.8 kmh 30.01 in1016.3 mb 0.00 in0.0 mm 0.00 in0.0 mm 0.00 in0.0 mm
08:30 AM 82.0°F27.8°C 80.1°F26.7°C 94% 1.0 mph S1.6 kmh S 1.0 mph1.6 kmh 30.01 in1016.3 mb 0.00 in0.0 mm 0.00 in0.0 mm 0.00 in0.0 mm
08:20 AM 81.0°F27.2°C 79.1°F26.2°C 94% 1.0 mph ESE1.6 kmh ESE 2.0 mph3.2 kmh 30.00 in1015.9 mb 0.00 in0.0 mm 0.00 in0.0 mm 0.00 in0.0 mm
08:10 AM 81.0°F27.2°C 79.4°F26.3°C 95% 1.0 mph ESE1.6 kmh ESE 1.0 mph1.6 kmh 30.00 in1015.9 mb 0.00 in0.0 mm 0.00 in0.0 mm 0.00 in0.0 mm
08:00 AM 80.0°F26.7°C 78.4°F25.8°C 95% Calm Calm 1.0 mph1.6 kmh 30.01 in1016.3 mb 0.00 in0.0 mm 0.00 in0.0 mm 0.00 in0.0 mm
07:50 AM 80.0°F26.7°C 78.4°F25.8°C 95% Calm Calm -- 30.00 in1015.9 mb 0.00 in0.0 mm 0.00 in0.0 mm 0.00 in0.0 mm
07:40 AM 80.0°F26.7°C 78.4°F25.8°C 95% Calm Calm 1.0 mph1.6 kmh 30.00 in1015.9 mb 0.00 in0.0 mm 0.00 in0.0 mm 0.00 in0.0 mm
07:30 AM 80.0°F26.7°C 78.4°F25.8°C 95% Calm Calm -- 30.00 in1015.9 mb 0.00 in0.0 mm 0.00 in0.0 mm 0.00 in0.0 mm
07:20 AM 80.0°F26.7°C 78.1°F25.6°C 94% Calm Calm -- 29.99 in1015.6 mb 0.00 in0.0 mm 0.00 in0.0 mm 0.00 in0.0 mm
07:10 AM 80.0°F26.7°C 78.1°F25.6°C 94% 1.0 mph NNE1.6 kmh NNE 1.0 mph1.6 kmh 30.00 in1015.9 mb 0.00 in0.0 mm 0.00 in0.0 mm 0.00 in0.0 mm
07:00 AM 80.0°F26.7°C 78.1°F25.6°C 94% Calm Calm -- 30.00 in1015.9 mb 0.00 in0.0 mm 0.00 in0.0 mm 0.00 in0.0 mm
06:50 AM 80.0°F26.7°C 77.8°F25.4°C 93% Calm Calm 1.0 mph1.6 kmh 29.99 in1015.6 mb 0.00 in0.0 mm 0.00 in0.0 mm 0.00 in0.0 mm
06:40 AM 80.0°F26.7°C 77.8°F25.4°C 93% Calm Calm 1.0 mph1.6 kmh 29.99 in1015.6 mb 0.00 in0.0 mm 0.00 in0.0 mm 0.00 in0.0 mm
06:30 AM 80.0°F26.7°C 77.8°F25.4°C 93% Calm Calm -- 29.99 in1015.6 mb 0.00 in0.0 mm 0.00 in0.0 mm 0.00 in0.0 mm
06:20 AM 80.0°F26.7°C 77.8°F25.4°C 93% 1.0 mph SW1.6 kmh SW 1.0 mph1.6 kmh 29.99 in1015.6 mb 0.00 in0.0 mm 0.00 in0.0 mm 0.00 in0.0 mm
06:10 AM 80.0°F26.7°C 77.8°F25.4°C 93% 1.0 mph W1.6 kmh W 1.0 mph1.6 kmh 29.98 in1015.2 mb 0.00 in0.0 mm 0.00 in0.0 mm 0.00 in0.0 mm
06:00 AM 80.0°F26.7°C 77.5°F25.3°C 92% Calm Calm -- 29.98 in1015.2 mb 0.00 in0.0 mm 0.00 in0.0 mm 0.00 in0.0 mm
05:50 AM 80.0°F26.7°C 77.5°F25.3°C 92% 1.0 mph NNW1.6 kmh NNW 1.0 mph1.6 kmh 29.97 in1014.9 mb 0.00 in0.0 mm 0.00 in0.0 mm 0.00 in0.0 mm
05:40 AM 80.0°F26.7°C 77.8°F25.4°C 93% 3.0 mph SW4.8 kmh SW 3.0 mph4.8 kmh 29.97 in1014.9 mb 0.00 in0.0 mm 0.00 in0.0 mm 0.00 in0.0 mm
05:30 AM 81.0°F27.2°C 78.5°F25.8°C 92% 1.0 mph SW1.6 kmh SW 1.0 mph1.6 kmh 29.97 in1014.9 mb 0.00 in0.0 mm 0.00 in0.0 mm 0.00 in0.0 mm
05:20 AM 81.0°F27.2°C 78.5°F25.8°C 92% 1.0 mph SW1.6 kmh SW 1.0 mph1.6 kmh 29.97 in1014.9 mb 0.00 in0.0 mm 0.00 in0.0 mm 0.00 in0.0 mm
05:10 AM 81.0°F27.2°C 78.1°F25.6°C 91% 2.0 mph SW3.2 kmh SW 3.0 mph4.8 kmh 29.97 in1014.9 mb 0.00 in0.0 mm 0.00 in0.0 mm 0.00 in0.0 mm
05:00 AM 81.0°F27.2°C 78.1°F25.6°C 91% 1.0 mph S1.6 kmh S 1.0 mph1.6 kmh 29.97 in1014.9 mb 0.00 in0.0 mm 0.00 in0.0 mm 0.00 in0.0 mm
04:50 AM 81.0°F27.2°C 78.1°F25.6°C 91% 1.0 mph SSW1.6 kmh SSW 1.0 mph1.6 kmh 29.97 in1014.9 mb 0.00 in0.0 mm 0.00 in0.0 mm 0.00 in0.0 mm
04:40 AM 81.0°F27.2°C 78.1°F25.6°C 91% 3.0 mph SW4.8 kmh SW 4.0 mph6.4 kmh 29.97 in1014.9 mb 0.00 in0.0 mm 0.00 in0.0 mm 0.00 in0.0 mm
04:30 AM 81.0°F27.2°C 77.8°F25.4°C 90% 3.0 mph SSW4.8 kmh SSW 4.0 mph6.4 kmh 29.97 in1014.9 mb 0.00 in0.0 mm 0.00 in0.0 mm 0.00 in0.0 mm
04:20 AM 81.0°F27.2°C 77.8°F25.4°C 90% 3.0 mph SW4.8 kmh SW 3.0 mph4.8 kmh 29.97 in1014.9 mb 0.00 in0.0 mm 0.00 in0.0 mm 0.00 in0.0 mm
04:10 AM 81.0°F27.2°C 77.8°F25.4°C 90% 1.0 mph SSW1.6 kmh SSW 1.0 mph1.6 kmh 29.98 in1015.2 mb 0.00 in0.0 mm 0.00 in0.0 mm 0.00 in0.0 mm
04:00 AM 81.0°F27.2°C 77.8°F25.4°C 90% 1.0 mph SE1.6 kmh SE 1.0 mph1.6 kmh 29.98 in1015.2 mb 0.00 in0.0 mm 0.00 in0.0 mm 0.00 in0.0 mm
03:50 AM 81.0°F27.2°C 77.8°F25.4°C 90% 1.0 mph SSW1.6 kmh SSW 2.0 mph3.2 kmh 29.98 in1015.2 mb 0.00 in0.0 mm 0.00 in0.0 mm 0.00 in0.0 mm
03:40 AM 81.0°F27.2°C 77.8°F25.4°C 90% 1.0 mph S1.6 kmh S 1.0 mph1.6 kmh 29.98 in1015.2 mb 0.00 in0.0 mm 0.00 in0.0 mm 0.00 in0.0 mm
03:30 AM 81.0°F27.2°C 77.8°F25.4°C 90% 2.0 mph S3.2 kmh S 2.0 mph3.2 kmh 29.98 in1015.2 mb 0.00 in0.0 mm 0.00 in0.0 mm 0.00 in0.0 mm
03:20 AM 81.0°F27.2°C 78.1°F25.6°C 91% 1.0 mph SW1.6 kmh SW 1.0 mph1.6 kmh 29.97 in1014.9 mb 0.00 in0.0 mm 0.00 in0.0 mm 0.00 in0.0 mm
03:10 AM 81.0°F27.2°C 77.8°F25.4°C 90% 3.0 mph SW4.8 kmh SW 3.0 mph4.8 kmh 29.97 in1014.9 mb 0.00 in0.0 mm 0.00 in0.0 mm 0.00 in0.0 mm
03:00 AM 81.0°F27.2°C 77.8°F25.4°C 90% 2.0 mph SW3.2 kmh SW 2.0 mph3.2 kmh 29.98 in1015.2 mb 0.00 in0.0 mm 0.00 in0.0 mm 0.00 in0.0 mm
02:50 AM 81.0°F27.2°C 77.5°F25.3°C 89% 2.0 mph SW3.2 kmh SW 3.0 mph4.8 kmh 29.98 in1015.2 mb 0.00 in0.0 mm 0.00 in0.0 mm 0.00 in0.0 mm
02:40 AM 81.0°F27.2°C 77.1°F25.1°C 88% 1.0 mph W1.6 kmh W 1.0 mph1.6 kmh 29.98 in1015.2 mb 0.00 in0.0 mm 0.00 in0.0 mm 0.00 in0.0 mm
02:30 AM 82.0°F27.8°C 78.1°F25.6°C 88% 1.0 mph WSW1.6 kmh WSW 1.0 mph1.6 kmh 29.98 in1015.2 mb 0.00 in0.0 mm 0.00 in0.0 mm 0.00 in0.0 mm
02:20 AM 82.0°F27.8°C 78.1°F25.6°C 88% 2.0 mph SW3.2 kmh SW 3.0 mph4.8 kmh 29.98 in1015.2 mb 0.00 in0.0 mm 0.00 in0.0 mm 0.00 in0.0 mm
02:10 AM 82.0°F27.8°C 77.8°F25.4°C 87% 1.0 mph SW1.6 kmh SW 1.0 mph1.6 kmh 29.97 in1014.9 mb 0.00 in0.0 mm 0.00 in0.0 mm 0.00 in0.0 mm
02:00 AM 82.0°F27.8°C 77.8°F25.4°C 87% 1.0 mph WSW1.6 kmh WSW 2.0 mph3.2 kmh 29.97 in1014.9 mb 0.00 in0.0 mm 0.00 in0.0 mm 0.00 in0.0 mm
01:50 AM 82.0°F27.8°C 77.8°F25.4°C 87% 1.0 mph WNW1.6 kmh WNW 1.0 mph1.6 kmh 29.97 in1014.9 mb 0.00 in0.0 mm 0.00 in0.0 mm 0.00 in0.0 mm
01:40 AM 82.0°F27.8°C 77.8°F25.4°C 87% 2.0 mph WSW3.2 kmh WSW 3.0 mph4.8 kmh 29.97 in1014.9 mb 0.00 in0.0 mm 0.00 in0.0 mm 0.00 in0.0 mm
01:30 AM 82.0°F27.8°C 77.8°F25.4°C 87% 2.0 mph SW3.2 kmh SW 3.0 mph4.8 kmh 29.97 in1014.9 mb 0.00 in0.0 mm 0.00 in0.0 mm 0.00 in0.0 mm
01:20 AM 82.0°F27.8°C 77.8°F25.4°C 87% 2.0 mph SSW3.2 kmh SSW 3.0 mph4.8 kmh 29.97 in1014.9 mb 0.00 in0.0 mm 0.00 in0.0 mm 0.00 in0.0 mm
01:10 AM 83.0°F28.3°C 78.7°F25.9°C 87% 3.0 mph WSW4.8 kmh WSW 3.0 mph4.8 kmh 29.98 in1015.2 mb 0.00 in0.0 mm 0.00 in0.0 mm 0.00 in0.0 mm
01:00 AM 83.0°F28.3°C 78.7°F25.9°C 87% 2.0 mph NW3.2 kmh NW 3.0 mph4.8 kmh 29.98 in1015.2 mb 0.00 in0.0 mm 0.00 in0.0 mm 0.00 in0.0 mm
12:50 AM 83.0°F28.3°C 78.7°F25.9°C 87% 5.0 mph SW8.0 kmh SW 8.0 mph12.9 kmh 29.97 in1014.9 mb 0.00 in0.0 mm 0.00 in0.0 mm 0.00 in0.0 mm
12:40 AM 83.0°F28.3°C 78.7°F25.9°C 87% 2.0 mph SSW3.2 kmh SSW 3.0 mph4.8 kmh 29.98 in1015.2 mb 0.00 in0.0 mm 0.00 in0.0 mm 0.00 in0.0 mm
12:30 AM 83.0°F28.3°C 78.4°F25.8°C 86% 5.0 mph WSW8.0 kmh WSW 5.0 mph8.0 kmh 29.99 in1015.6 mb 0.00 in0.0 mm 0.00 in0.0 mm 0.00 in0.0 mm
12:20 AM 83.0°F28.3°C 78.4°F25.8°C 86% 2.0 mph SSW3.2 kmh SSW 3.0 mph4.8 kmh 30.00 in1015.9 mb 0.00 in0.0 mm 0.00 in0.0 mm 0.00 in0.0 mm
12:10 AM 83.0°F28.3°C 78.4°F25.8°C 86% 1.0 mph S1.6 kmh S 1.0 mph1.6 kmh 30.00 in1015.9 mb 0.00 in0.0 mm 0.00 in0.0 mm 0.00 in0.0 mm
12:00 AM 83.0°F28.3°C 78.0°F25.6°C 85% 1.0 mph SSE1.6 kmh SSE 2.0 mph3.2 kmh 30.01 in1016.3 mb 0.00 in0.0 mm 0.00 in0.0 mm 0.00 in0.0 mm